Time;durP1;ratioP1;P1;durP2;ratioP2;P2;SDS_P1;SDS_P2;PMS_P1;PMS_P2;Temp;Humidity;BMP_temperature;BMP_pressure;BME280_temperature;BME280_humidity;BME280_pressure;Samples;Min_cycle;Max_cycle;Signal;HPM_P1;HPM_P2
2023/05/01 05:09:11;;;;;;;;;;;;;;;;;;4985261;28;19916;-39
2023/05/01 05:11:38;;;;;;;;;;;;;;;;;;4989477;28;19971;-39
2023/05/01 05:14:04;;;;;;;;;;;;;;;;;;4989464;28;20012;-39
2023/05/01 05:16:30;;;;;;;;;;;;;;;;;;4989281;28;19993;-39
2023/05/01 05:18:57;;;;;;;;;;;;;;;;;;4989280;28;20399;-39
2023/05/01 05:21:24;;;;;;;;;;;;;;;;;;4989469;28;19921;-39
2023/05/01 05:23:50;;;;;;;;;;;;;;;;;;4989487;28;19906;-39
2023/05/01 05:26:16;;;;;;;;;;;;;;;;;;4989499;28;19937;-39
2023/05/01 05:28:42;;;;;;;;;;;;;;;;;;4988928;28;20381;-39
2023/05/01 05:31:07;;;;;;;;;;;;;;;;;;4988994;28;19960;-39
2023/05/01 05:33:33;;;;;;;;;;;;;;;;;;4989121;28;19925;-39
2023/05/01 05:35:59;;;;;;;;;;;;;;;;;;4989391;28;19906;-39
2023/05/01 05:38:25;;;;;;;;;;;;;;;;;;4989049;28;19910;-39
2023/05/01 05:40:53;;;;;;;;;;;;;;;;;;4989392;28;19905;-39
2023/05/01 05:43:20;;;;;;;;;;;;;;;;;;4989264;28;19968;-39
2023/05/01 05:45:46;;;;;;;;;;;;;;;;;;4988915;28;19906;-39
2023/05/01 05:48:13;;;;;;;;;;;;;;;;;;4988800;28;19910;-39
2023/05/01 05:50:39;;;;;;;;;;;;;;;;;;4988869;28;19956;-39
2023/05/01 05:53:05;;;;;;;;;;;;;;;;;;4988842;28;20324;-39
2023/05/01 05:55:32;;;;;;;;;;;;;;;;;;4988005;28;19909;-39
2023/05/01 05:57:57;;;;;;;;;;;;;;;;;;4988524;28;20388;-39
2023/05/01 06:00:23;;;;;;;;;;;;;;;;;;4988698;28;19925;-39
2023/05/01 06:02:50;;;;;;;;;;;;;;;;;;4988936;28;19902;-39
2023/05/01 06:05:16;;;;;;;;;;;;;;;;;;4988574;28;20016;-39
2023/05/01 06:07:42;;;;;;;;;;;;;;;;;;4988521;28;19996;-40
2023/05/01 06:10:08;;;;;;;;;;;;;;;;;;4988727;28;19917;-39
2023/05/01 06:12:34;;;;;;;;;;;;;;;;;;4988367;28;19913;-39
2023/05/01 06:15:00;;;;;;;;;;;;;;;;;;4988247;28;20392;-39
2023/05/01 06:17:27;;;;;;;;;;;;;;;;;;4988206;28;19906;-39
2023/05/01 06:19:53;;;;;;;;;;;;;;;;;;4988787;28;19999;-39
2023/05/01 06:22:18;;;;;;;;;;;;;;;;;;4988637;28;19957;-39
2023/05/01 06:24:45;;;;;;;;;;;;;;;;;;4988234;28;19910;-39
2023/05/01 06:27:10;;;;;;;;;;;;;;;;;;4988079;28;19956;-39
2023/05/01 06:29:36;;;;;;;;;;;;;;;;;;4988298;28;19906;-39
2023/05/01 06:32:03;;;;;;;;;;;;;;;;;;4988218;28;19967;-40
2023/05/01 06:34:29;;;;;;;;;;;;;;;;;;4981099;28;19918;-40
2023/05/01 06:36:55;;;;;;;;;;;;;;;;;;4969958;28;19906;-40
2023/05/01 06:39:21;;;;;;;;;;;;;;;;;;4970131;28;19998;-40
2023/05/01 06:41:47;;;;;;;;;;;;;;;;;;4970144;28;19912;-40
2023/05/01 06:44:12;;;;;;;;;;;;;;;;;;4970030;28;19910;-40
2023/05/01 06:46:38;;;;;;;;;;;;;;;;;;4970124;28;20156;-40
2023/05/01 06:49:05;;;;;;;;;;;;;;;;;;4964092;28;19962;-40
2023/05/01 06:51:31;;;;;;;;;;;;;;;;;;4950853;29;19906;-40
2023/05/01 06:53:57;;;;;;;;;;;;;;;;;;4967079;28;19910;-40
2023/05/01 06:56:23;;;;;;;;;;;;;;;;;;4970276;28;20383;-40
2023/05/01 06:58:49;;;;;;;;;;;;;;;;;;4970032;28;19910;-40
2023/05/01 07:01:16;;;;;;;;;;;;;;;;;;4969993;28;19910;-39
2023/05/01 07:03:43;;;;;;;;;;;;;;;;;;4969860;28;19909;-40
2023/05/01 07:06:09;;;;;;;;;;;;;;;;;;4971106;28;19910;-39
2023/05/01 07:08:35;;;;;;;;;;;;;;;;;;4973548;28;20439;-40
2023/05/01 07:11:01;;;;;;;;;;;;;;;;;;4973970;28;19921;-40
2023/05/01 07:13:27;;;;;;;;;;;;;;;;;;4973265;28;19914;-40
2023/05/01 07:15:53;;;;;;;;;;;;;;;;;;4973158;28;19914;-40
2023/05/01 07:18:19;;;;;;;;;;;;;;;;;;4971913;28;20460;-39
2023/05/01 07:20:45;;;;;;;;;;;;;;;;;;4972310;28;20000;-40
2023/05/01 07:23:11;;;;;;;;;;;;;;;;;;4971990;28;19957;-40
2023/05/01 07:25:37;;;;;;;;;;;;;;;;;;4972070;28;20384;-40
2023/05/01 07:28:04;;;;;;;;;;;;;;;;;;4968579;28;19913;-40
2023/05/01 07:30:29;;;;;;;;;;;;;;;;;;4969025;28;20297;-40
2023/05/01 07:32:56;;;;;;;;;;;;;;;;;;4973437;28;19910;-40
2023/05/01 07:35:22;;;;;;;;;;;;;;;;;;4973560;28;19910;-40
2023/05/01 07:37:50;;;;;;;;;;;;;;;;;;4972868;28;19989;-40
2023/05/01 07:40:16;;;;;;;;;;;;;;;;;;4955840;28;20021;-39
2023/05/01 07:42:42;;;;;;;;;;;;;;;;;;4973730;28;19997;-40
2023/05/01 07:45:08;;;;;;;;;;;;;;;;;;4985181;28;19953;-40
2023/05/01 07:47:34;;;;;;;;;;;;;;;;;;4991180;28;19933;-40
2023/05/01 07:50:00;;;;;;;;;;;;;;;;;;4987825;28;19948;-40
2023/05/01 07:52:26;;;;;;;;;;;;;;;;;;4973841;28;19906;-40
2023/05/01 07:54:52;;;;;;;;;;;;;;;;;;4974195;28;19917;-40
2023/05/01 07:57:18;;;;;;;;;;;;;;;;;;4973784;28;19906;-40
2023/05/01 07:59:44;;;;;;;;;;;;;;;;;;4973439;28;20709;-40
2023/05/01 08:02:10;;;;;;;;;;;;;;;;;;4973332;28;19914;-40
2023/05/01 08:04:36;;;;;;;;;;;;;;;;;;4973699;28;20339;-40
2023/05/01 08:07:02;;;;;;;;;;;;;;;;;;4973625;28;19948;-40
2023/05/01 08:09:28;;;;;;;;;;;;;;;;;;4973481;28;20005;-39
2023/05/01 08:11:54;;;;;;;;;;;;;;;;;;4973317;28;19952;-40
2023/05/01 08:14:20;;;;;;;;;;;;;;;;;;4973489;28;19921;-40
2023/05/01 08:16:46;;;;;;;;;;;;;;;;;;4973080;28;19906;-40
2023/05/01 08:19:11;;;;;;;;;;;;;;;;;;4972487;28;19960;-40
2023/05/01 08:21:38;;;;;;;;;;;;;;;;;;4974694;28;19949;-40
2023/05/01 08:24:04;;;;;;;;;;;;;;;;;;4992825;28;20314;-40
2023/05/01 08:26:30;;;;;;;;;;;;;;;;;;4982355;28;19917;-40
2023/05/01 08:28:56;;;;;;;;;;;;;;;;;;4972980;28;19909;-40
2023/05/01 08:31:24;;;;;;;;;;;;;;;;;;4973164;28;19916;-40
2023/05/01 08:33:50;;;;;;;;;;;;;;;;;;4973123;28;19969;-39
2023/05/01 08:36:15;;;;;;;;;;;;;;;;;;4973028;28;20289;-40
2023/05/01 08:38:41;;;;;;;;;;;;;;;;;;4971164;28;20001;-40
2023/05/01 08:41:07;;;;;;;;;;;;;;;;;;4967697;28;19914;-40
2023/05/01 08:43:33;;;;;;;;;;;;;;;;;;4989607;28;19909;-40
2023/05/01 08:46:00;;;;;;;;;;;;;;;;;;4991020;28;19920;-40
2023/05/01 08:48:26;;;;;;;;;;;;;;;;;;4976071;28;19945;-40
2023/05/01 08:50:52;;;;;;;;;;;;;;;;;;4980697;28;19929;-40
2023/05/01 08:53:18;;;;;;;;;;;;;;;;;;4982711;28;19910;-40
2023/05/01 08:55:47;;;;;;;;;;;;;;;;;;4971843;28;19960;-40
2023/05/01 08:58:13;;;;;;;;;;;;;;;;;;4972381;28;19914;-40
2023/05/01 09:00:40;;;;;;;;;;;;;;;;;;4954730;28;19913;-40
2023/05/01 09:03:06;;;;;;;;;;;;;;;;;;4971350;28;19913;-40
2023/05/01 09:05:32;;;;;;;;;;;;;;;;;;4971146;28;19909;-40
2023/05/01 09:07:58;;;;;;;;;;;;;;;;;;4986009;28;20444;-40
2023/05/01 09:10:24;;;;;;;;;;;;;;;;;;4976061;28;19992;-40
2023/05/01 09:12:50;;;;;;;;;;;;;;;;;;4972245;28;19914;-40
2023/05/01 09:15:16;;;;;;;;;;;;;;;;;;4971553;28;19933;-40
2023/05/01 09:17:42;;;;;;;;;;;;;;;;;;4972685;28;20529;-40
2023/05/01 09:20:08;;;;;;;;;;;;;;;;;;4974459;28;19916;-40
2023/05/01 09:22:35;;;;;;;;;;;;;;;;;;4980218;28;20395;-40
2023/05/01 09:25:01;;;;;;;;;;;;;;;;;;4971718;28;19906;-40
2023/05/01 09:27:27;;;;;;;;;;;;;;;;;;4971505;28;20510;-41
2023/05/01 09:29:53;;;;;;;;;;;;;;;;;;4976555;28;19910;-40
2023/05/01 09:32:23;;;;;;;;;;;;;;;;;;4980859;28;19912;-40
2023/05/01 09:34:49;;;;;;;;;;;;;;;;;;4978260;28;19925;-40
2023/05/01 09:37:15;;;;;;;;;;;;;;;;;;4991239;28;19918;-40
2023/05/01 09:39:41;;;;;;;;;;;;;;;;;;4978255;28;19917;-40
2023/05/01 09:42:07;;;;;;;;;;;;;;;;;;4970888;28;19910;-40
2023/05/01 09:44:33;;;;;;;;;;;;;;;;;;4970685;28;20636;-40
2023/05/01 09:46:59;;;;;;;;;;;;;;;;;;4971366;28;19910;-40
2023/05/01 09:49:25;;;;;;;;;;;;;;;;;;4971675;28;19910;-40
2023/05/01 09:51:51;;;;;;;;;;;;;;;;;;4972002;28;19931;-40
2023/05/01 09:54:16;;;;;;;;;;;;;;;;;;4955199;28;19918;-40
2023/05/01 09:56:43;;;;;;;;;;;;;;;;;;4970432;28;19976;-40
2023/05/01 09:59:08;;;;;;;;;;;;;;;;;;4970442;28;19909;-40
2023/05/01 10:01:35;;;;;;;;;;;;;;;;;;4971085;28;19914;-40
2023/05/01 10:04:02;;;;;;;;;;;;;;;;;;4971381;28;20405;-40
2023/05/01 10:06:28;;;;;;;;;;;;;;;;;;4970546;28;20301;-40
2023/05/01 10:08:54;;;;;;;;;;;;;;;;;;4955021;28;19906;-40
2023/05/01 10:11:21;;;;;;;;;;;;;;;;;;4951900;29;19918;-40
2023/05/01 10:13:48;;;;;;;;;;;;;;;;;;4952041;29;19955;-41
2023/05/01 10:16:14;;;;;;;;;;;;;;;;;;4981534;28;20351;-40
2023/05/01 10:18:40;;;;;;;;;;;;;;;;;;4990727;28;20411;-40
2023/05/01 10:21:06;;;;;;;;;;;;;;;;;;4973443;28;19983;-40
2023/05/01 10:23:32;;;;;;;;;;;;;;;;;;4987755;28;20000;-40
2023/05/01 10:25:58;;;;;;;;;;;;;;;;;;4983460;28;19910;-40
2023/05/01 10:28:24;;;;;;;;;;;;;;;;;;4971047;28;19906;-40
2023/05/01 10:30:50;;;;;;;;;;;;;;;;;;4971617;28;19921;-40
2023/05/01 10:33:16;;;;;;;;;;;;;;;;;;4970999;28;20337;-40
2023/05/01 10:35:42;;;;;;;;;;;;;;;;;;4971258;28;19968;-40
2023/05/01 10:38:08;;;;;;;;;;;;;;;;;;4966222;28;19907;-40
2023/05/01 10:40:34;;;;;;;;;;;;;;;;;;4971410;28;19967;-40
2023/05/01 10:43:00;;;;;;;;;;;;;;;;;;4976651;28;20352;-40
2023/05/01 10:45:26;;;;;;;;;;;;;;;;;;4977350;28;19910;-40
2023/05/01 10:47:53;;;;;;;;;;;;;;;;;;4977727;28;19906;-40
2023/05/01 10:50:19;;;;;;;;;;;;;;;;;;4977737;28;19906;-40
2023/05/01 10:52:45;;;;;;;;;;;;;;;;;;4977411;28;19937;-40
2023/05/01 10:55:11;;;;;;;;;;;;;;;;;;4977164;28;19910;-40
2023/05/01 10:57:37;;;;;;;;;;;;;;;;;;4972393;28;19906;-40
2023/05/01 11:00:03;;;;;;;;;;;;;;;;;;4975056;28;19984;-40
2023/05/01 11:02:29;;;;;;;;;;;;;;;;;;4975175;28;20332;-40
2023/05/01 11:04:55;;;;;;;;;;;;;;;;;;4973845;28;19920;-40
2023/05/01 11:07:22;;;;;;;;;;;;;;;;;;4972685;28;19910;-40
2023/05/01 11:09:50;;;;;;;;;;;;;;;;;;4973393;28;19921;-40
2023/05/01 11:12:16;;;;;;;;;;;;;;;;;;4970548;28;19920;-40
2023/05/01 11:14:43;;;;;;;;;;;;;;;;;;4972316;28;19940;-41
2023/05/01 11:17:10;;;;;;;;;;;;;;;;;;4971533;28;20389;-41
2023/05/01 11:19:36;;;;;;;;;;;;;;;;;;4971578;28;19972;-41
2023/05/01 11:22:03;;;;;;;;;;;;;;;;;;4972374;28;20381;-41
2023/05/01 11:24:29;;;;;;;;;;;;;;;;;;4971603;28;20409;-41
2023/05/01 11:26:55;;;;;;;;;;;;;;;;;;4971496;28;19914;-41
2023/05/01 11:29:21;;;;;;;;;;;;;;;;;;4971606;28;19921;-40
2023/05/01 11:31:48;;;;;;;;;;;;;;;;;;4972654;28;20008;-41
2023/05/01 11:34:15;;;;;;;;;;;;;;;;;;4971605;28;19945;-41
2023/05/01 11:36:40;;;;;;;;;;;;;;;;;;4972144;28;19914;-40
2023/05/01 11:39:07;;;;;;;;;;;;;;;;;;4971139;28;20420;-40
2023/05/01 11:41:33;;;;;;;;;;;;;;;;;;4970434;28;20431;-40
2023/05/01 11:44:00;;;;;;;;;;;;;;;;;;4970509;28;19918;-40
2023/05/01 11:46:26;;;;;;;;;;;;;;;;;;4968076;28;19921;-40
2023/05/01 11:48:52;;;;;;;;;;;;;;;;;;4954283;28;19906;-40
2023/05/01 11:51:18;;;;;;;;;;;;;;;;;;4964149;28;19929;-40
2023/05/01 11:53:44;;;;;;;;;;;;;;;;;;4932153;29;19974;-40
2023/05/01 11:56:10;;;;;;;;;;;;;;;;;;4931693;29;20104;-40
2023/05/01 11:58:36;;;;;;;;;;;;;;;;;;4949294;29;19913;-40
2023/05/01 12:01:03;;;;;;;;;;;;;;;;;;4949250;29;20448;-40
2023/05/01 12:03:29;;;;;;;;;;;;;;;;;;4949728;28;19973;-40
2023/05/01 12:05:55;;;;;;;;;;;;;;;;;;4968314;28;20423;-40
2023/05/01 12:08:22;;;;;;;;;;;;;;;;;;4967433;28;19933;-40
2023/05/01 12:10:48;;;;;;;;;;;;;;;;;;4967738;28;19921;-40
2023/05/01 12:13:13;;;;;;;;;;;;;;;;;;4967088;28;19914;-40
2023/05/01 12:15:39;;;;;;;;;;;;;;;;;;4949485;28;20333;-41
2023/05/01 12:18:06;;;;;;;;;;;;;;;;;;4967125;28;19921;-40
2023/05/01 12:20:32;;;;;;;;;;;;;;;;;;4967847;28;19992;-40
2023/05/01 12:22:58;;;;;;;;;;;;;;;;;;4966747;28;20005;-40
2023/05/01 12:25:26;;;;;;;;;;;;;;;;;;4967138;28;19933;-41
2023/05/01 12:27:54;;;;;;;;;;;;;;;;;;4967303;28;19913;-40
2023/05/01 12:30:20;;;;;;;;;;;;;;;;;;4968007;28;19910;-41
2023/05/01 12:32:47;;;;;;;;;;;;;;;;;;4967149;28;20049;-40
2023/05/01 12:35:13;;;;;;;;;;;;;;;;;;4949799;28;20309;-41
2023/05/01 12:37:40;;;;;;;;;;;;;;;;;;4967138;28;19917;-41
2023/05/01 12:40:07;;;;;;;;;;;;;;;;;;4967190;28;19913;-41
2023/05/01 12:42:33;;;;;;;;;;;;;;;;;;4968031;28;19914;-40
2023/05/01 12:44:58;;;;;;;;;;;;;;;;;;4966730;28;19910;-41
2023/05/01 12:47:25;;;;;;;;;;;;;;;;;;4966794;28;20005;-40
2023/05/01 12:49:51;;;;;;;;;;;;;;;;;;4967250;28;19914;-40
2023/05/01 12:52:17;;;;;;;;;;;;;;;;;;4967371;28;20450;-41
2023/05/01 12:54:43;;;;;;;;;;;;;;;;;;4967136;28;20016;-41
2023/05/01 12:57:09;;;;;;;;;;;;;;;;;;4967702;28;20285;-41
2023/05/01 12:59:35;;;;;;;;;;;;;;;;;;4968537;28;19909;-41
2023/05/01 13:02:01;;;;;;;;;;;;;;;;;;4968358;28;20008;-41
2023/05/01 13:04:26;;;;;;;;;;;;;;;;;;4967806;28;19980;-41
2023/05/01 13:06:55;;;;;;;;;;;;;;;;;;4966860;28;19914;-41
2023/05/01 13:09:21;;;;;;;;;;;;;;;;;;4978234;28;20494;-41
2023/05/01 13:11:47;;;;;;;;;;;;;;;;;;4989390;28;19940;-41
2023/05/01 13:14:15;;;;;;;;;;;;;;;;;;4970054;28;19957;-41
2023/05/01 13:16:41;;;;;;;;;;;;;;;;;;4967542;28;19913;-41
2023/05/01 13:19:07;;;;;;;;;;;;;;;;;;4950451;29;19910;-41
2023/05/01 13:21:33;;;;;;;;;;;;;;;;;;4951071;29;20349;-41
2023/05/01 13:23:59;;;;;;;;;;;;;;;;;;4951216;28;19906;-41
2023/05/01 13:26:25;;;;;;;;;;;;;;;;;;4969481;28;19968;-41
2023/05/01 13:28:51;;;;;;;;;;;;;;;;;;4969686;28;19906;-41
2023/05/01 13:31:17;;;;;;;;;;;;;;;;;;4969832;28;20302;-41
2023/05/01 13:33:43;;;;;;;;;;;;;;;;;;4969447;28;19921;-41
2023/05/01 13:36:09;;;;;;;;;;;;;;;;;;4969590;28;19988;-41
2023/05/01 13:38:35;;;;;;;;;;;;;;;;;;4969481;28;19902;-41
2023/05/01 13:41:02;;;;;;;;;;;;;;;;;;4969721;28;20344;-41
2023/05/01 13:43:29;;;;;;;;;;;;;;;;;;4969409;28;20313;-41
2023/05/01 13:45:55;;;;;;;;;;;;;;;;;;4969368;28;19910;-41
2023/05/01 13:48:20;;;;;;;;;;;;;;;;;;4969295;28;19913;-41
2023/05/01 13:50:47;;;;;;;;;;;;;;;;;;4969313;28;19917;-41
2023/05/01 13:53:13;;;;;;;;;;;;;;;;;;4969201;28;20015;-41
2023/05/01 13:55:38;;;;;;;;;;;;;;;;;;4969140;28;20001;-41
2023/05/01 13:58:06;;;;;;;;;;;;;;;;;;4967516;28;19906;-41
2023/05/01 14:00:33;;;;;;;;;;;;;;;;;;4959804;28;19929;-41
2023/05/01 14:02:58;;;;;;;;;;;;;;;;;;4969485;28;19996;-40
2023/05/01 14:05:25;;;;;;;;;;;;;;;;;;4968940;28;20010;-41
2023/05/01 14:07:51;;;;;;;;;;;;;;;;;;4969149;28;19917;-41
2023/05/01 14:10:17;;;;;;;;;;;;;;;;;;4968823;28;19918;-41
2023/05/01 14:12:44;;;;;;;;;;;;;;;;;;4951743;28;19914;-41
2023/05/01 14:15:10;;;;;;;;;;;;;;;;;;4961249;28;19914;-41
2023/05/01 14:17:37;;;;;;;;;;;;;;;;;;4949349;29;19913;-42
2023/05/01 14:20:04;;;;;;;;;;;;;;;;;;4968213;28;19910;-41
2023/05/01 14:22:31;;;;;;;;;;;;;;;;;;4969077;28;19906;-41
2023/05/01 14:24:58;;;;;;;;;;;;;;;;;;4968752;28;20343;-42
2023/05/01 14:27:24;;;;;;;;;;;;;;;;;;4968847;28;19917;-42
2023/05/01 14:29:49;;;;;;;;;;;;;;;;;;4968714;28;19906;-42
2023/05/01 14:32:15;;;;;;;;;;;;;;;;;;4968415;28;20372;-44
2023/05/01 14:34:42;;;;;;;;;;;;;;;;;;4979830;28;19914;-41
2023/05/01 14:37:08;;;;;;;;;;;;;;;;;;4988207;28;19929;-41
2023/05/01 14:39:34;;;;;;;;;;;;;;;;;;4972196;28;19910;-41
2023/05/01 14:42:01;;;;;;;;;;;;;;;;;;4988511;28;20377;-41
2023/05/01 14:44:27;;;;;;;;;;;;;;;;;;4988009;28;19910;-41
2023/05/01 14:46:53;;;;;;;;;;;;;;;;;;4987949;28;20149;-42
2023/05/01 14:49:19;;;;;;;;;;;;;;;;;;4987738;28;19905;-42
2023/05/01 14:51:45;;;;;;;;;;;;;;;;;;4988062;28;19922;-42
2023/05/01 14:54:11;;;;;;;;;;;;;;;;;;4987639;28;19936;-42
2023/05/01 14:56:37;;;;;;;;;;;;;;;;;;4969314;28;19913;-41
2023/05/01 14:59:03;;;;;;;;;;;;;;;;;;4969031;28;19945;-42
2023/05/01 15:01:29;;;;;;;;;;;;;;;;;;4968006;28;20396;-42
2023/05/01 15:03:55;;;;;;;;;;;;;;;;;;4967260;28;19910;-42
2023/05/01 15:06:21;;;;;;;;;;;;;;;;;;4966443;28;19906;-41
2023/05/01 15:08:47;;;;;;;;;;;;;;;;;;4966563;28;19906;-42
2023/05/01 15:11:13;;;;;;;;;;;;;;;;;;4967246;28;20433;-42
2023/05/01 15:13:40;;;;;;;;;;;;;;;;;;4966768;28;19920;-43
2023/05/01 15:16:07;;;;;;;;;;;;;;;;;;4966491;28;20013;-42
2023/05/01 15:18:35;;;;;;;;;;;;;;;;;;4964189;28;19925;-42
2023/05/01 15:21:02;;;;;;;;;;;;;;;;;;4966372;28;20016;-42
2023/05/01 15:23:28;;;;;;;;;;;;;;;;;;4962017;28;20309;-43
2023/05/01 15:25:55;;;;;;;;;;;;;;;;;;4976889;28;20404;-44
2023/05/01 15:28:21;;;;;;;;;;;;;;;;;;4953587;28;20405;-42
2023/05/01 15:30:47;;;;;;;;;;;;;;;;;;4966500;28;20393;-42
2023/05/01 15:33:13;;;;;;;;;;;;;;;;;;4959745;28;19915;-43
2023/05/01 15:35:39;;;;;;;;;;;;;;;;;;4960569;28;19910;-42
2023/05/01 15:38:05;;;;;;;;;;;;;;;;;;4972269;28;19913;-43
2023/05/01 15:40:32;;;;;;;;;;;;;;;;;;4972391;28;19906;-42
2023/05/01 15:42:58;;;;;;;;;;;;;;;;;;4972166;28;19918;-42
2023/05/01 15:45:24;;;;;;;;;;;;;;;;;;4972060;28;19932;-42
2023/05/01 15:47:50;;;;;;;;;;;;;;;;;;4972407;28;19910;-43
2023/05/01 15:50:16;;;;;;;;;;;;;;;;;;4971410;28;19914;-42
2023/05/01 15:52:42;;;;;;;;;;;;;;;;;;4972602;28;19921;-44
2023/05/01 15:55:07;;;;;;;;;;;;;;;;;;4972270;28;19918;-43
2023/05/01 15:57:33;;;;;;;;;;;;;;;;;;4972269;28;19910;-43
2023/05/01 16:00:00;;;;;;;;;;;;;;;;;;4971548;28;19937;-44
2023/05/01 16:02:26;;;;;;;;;;;;;;;;;;4961703;28;20017;-44
2023/05/01 16:04:52;;;;;;;;;;;;;;;;;;4971769;28;20033;-43
2023/05/01 16:07:20;;;;;;;;;;;;;;;;;;4972081;28;19910;-42
2023/05/01 16:09:46;;;;;;;;;;;;;;;;;;4972332;28;19918;-43
2023/05/01 16:12:12;;;;;;;;;;;;;;;;;;4970876;28;19936;-43
2023/05/01 16:14:40;;;;;;;;;;;;;;;;;;4968149;28;20373;-45
2023/05/01 16:17:06;;;;;;;;;;;;;;;;;;4968024;28;20407;-44
2023/05/01 16:19:35;;;;;;;;;;;;;;;;;;4969735;28;19968;-47
2023/05/01 16:22:01;;;;;;;;;;;;;;;;;;4969128;28;19914;-45
2023/05/01 16:24:27;;;;;;;;;;;;;;;;;;4968928;28;19914;-47
2023/05/01 16:26:53;;;;;;;;;;;;;;;;;;4969262;28;19914;-44
2023/05/01 16:29:20;;;;;;;;;;;;;;;;;;4968979;28;19906;-46
2023/05/01 16:31:46;;;;;;;;;;;;;;;;;;4950960;28;19918;-44
2023/05/01 16:34:12;;;;;;;;;;;;;;;;;;4957558;28;19920;-44
2023/05/01 16:36:41;;;;;;;;;;;;;;;;;;4965273;28;20217;-44
2023/05/01 16:39:07;;;;;;;;;;;;;;;;;;4961773;28;19920;-43
2023/05/01 16:41:34;;;;;;;;;;;;;;;;;;4966771;28;19910;-45
2023/05/01 16:44:00;;;;;;;;;;;;;;;;;;4969976;28;19918;-46
2023/05/01 16:46:26;;;;;;;;;;;;;;;;;;4956793;28;19914;-42
2023/05/01 16:48:52;;;;;;;;;;;;;;;;;;4967757;28;19925;-42
2023/05/01 16:51:18;;;;;;;;;;;;;;;;;;4967639;28;20361;-42
2023/05/01 16:53:44;;;;;;;;;;;;;;;;;;4979217;28;19922;-42
2023/05/01 16:56:11;;;;;;;;;;;;;;;;;;4967145;28;19917;-42
2023/05/01 16:58:37;;;;;;;;;;;;;;;;;;4967299;28;19906;-43
2023/05/01 17:01:03;;;;;;;;;;;;;;;;;;4966038;28;20061;-43
2023/05/01 17:03:30;;;;;;;;;;;;;;;;;;4966464;28;19921;-44
2023/05/01 17:05:57;;;;;;;;;;;;;;;;;;4966074;28;19956;-44
2023/05/01 17:08:23;;;;;;;;;;;;;;;;;;4966204;28;19920;-43
2023/05/01 17:10:49;;;;;;;;;;;;;;;;;;4966804;28;19914;-43
2023/05/01 17:13:16;;;;;;;;;;;;;;;;;;4967381;28;20444;-43
2023/05/01 17:15:42;;;;;;;;;;;;;;;;;;4966613;28;20037;-43
2023/05/01 17:18:08;;;;;;;;;;;;;;;;;;4966770;28;20012;-43
2023/05/01 17:20:34;;;;;;;;;;;;;;;;;;4967233;28;20647;-43
2023/05/01 17:23:00;;;;;;;;;;;;;;;;;;4966846;28;20393;-42
2023/05/01 17:25:26;;;;;;;;;;;;;;;;;;4962599;28;19957;-44
2023/05/01 17:27:52;;;;;;;;;;;;;;;;;;4966735;28;20048;-43
2023/05/01 17:30:18;;;;;;;;;;;;;;;;;;4967203;28;19910;-44
2023/05/01 17:32:44;;;;;;;;;;;;;;;;;;4966677;28;20013;-42
2023/05/01 17:35:10;;;;;;;;;;;;;;;;;;4966599;28;20367;-43
2023/05/01 17:37:38;;;;;;;;;;;;;;;;;;4966482;28;19909;-42
2023/05/01 17:40:04;;;;;;;;;;;;;;;;;;4966339;28;19937;-43
2023/05/01 17:42:30;;;;;;;;;;;;;;;;;;4966476;28;19917;-43
2023/05/01 17:44:57;;;;;;;;;;;;;;;;;;4966538;28;20223;-43
2023/05/01 17:47:24;;;;;;;;;;;;;;;;;;4966418;28;19914;-44
2023/05/01 17:49:51;;;;;;;;;;;;;;;;;;4965560;28;19986;-43
2023/05/01 17:52:17;;;;;;;;;;;;;;;;;;4966417;28;20286;-44
2023/05/01 17:54:44;;;;;;;;;;;;;;;;;;4971529;28;19918;-42
2023/05/01 17:57:10;;;;;;;;;;;;;;;;;;4969518;28;19925;-43
2023/05/01 17:59:36;;;;;;;;;;;;;;;;;;4974405;28;19910;-44
2023/05/01 18:02:02;;;;;;;;;;;;;;;;;;4965461;28;19914;-43
2023/05/01 18:04:28;;;;;;;;;;;;;;;;;;4966377;28;19965;-43
2023/05/01 18:06:54;;;;;;;;;;;;;;;;;;4963834;28;20021;-43
2023/05/01 18:09:21;;;;;;;;;;;;;;;;;;4965186;28;20041;-43
2023/05/01 18:11:48;;;;;;;;;;;;;;;;;;4965816;28;20008;-43
2023/05/01 18:14:14;;;;;;;;;;;;;;;;;;4966183;28;19918;-43
2023/05/01 18:16:40;;;;;;;;;;;;;;;;;;4964479;28;19960;-43
2023/05/01 18:19:07;;;;;;;;;;;;;;;;;;4948301;28;20511;-43
2023/05/01 18:21:33;;;;;;;;;;;;;;;;;;4964812;28;19917;-43
2023/05/01 18:24:01;;;;;;;;;;;;;;;;;;4963833;28;20820;-43
2023/05/01 18:26:28;;;;;;;;;;;;;;;;;;4964262;28;20332;-43
2023/05/01 18:28:55;;;;;;;;;;;;;;;;;;4966129;28;19914;-42
2023/05/01 18:31:21;;;;;;;;;;;;;;;;;;4944766;28;19910;-43
2023/05/01 18:33:46;;;;;;;;;;;;;;;;;;4948401;28;20009;-42
2023/05/01 18:36:12;;;;;;;;;;;;;;;;;;4965086;28;20341;-43
2023/05/01 18:38:39;;;;;;;;;;;;;;;;;;4963396;28;20443;-43
2023/05/01 18:41:06;;;;;;;;;;;;;;;;;;4965070;28;19918;-43
2023/05/01 18:43:32;;;;;;;;;;;;;;;;;;4965782;28;19914;-43
2023/05/01 18:45:59;;;;;;;;;;;;;;;;;;4964056;28;19933;-43
2023/05/01 18:48:25;;;;;;;;;;;;;;;;;;4965876;28;20343;-42
2023/05/01 18:50:50;;;;;;;;;;;;;;;;;;4965299;28;19910;-43
2023/05/01 18:53:17;;;;;;;;;;;;;;;;;;4965831;28;20523;-43
2023/05/01 18:55:43;;;;;;;;;;;;;;;;;;4965199;28;19921;-44
2023/05/01 18:58:10;;;;;;;;;;;;;;;;;;4953381;28;20328;-43
2023/05/01 19:00:36;;;;;;;;;;;;;;;;;;4964914;28;19914;-43
2023/05/01 19:03:02;;;;;;;;;;;;;;;;;;4968455;28;19938;-43
2023/05/01 19:05:28;;;;;;;;;;;;;;;;;;4969701;28;20405;-44
2023/05/01 19:07:57;;;;;;;;;;;;;;;;;;4968666;28;19914;-43
2023/05/01 19:10:23;;;;;;;;;;;;;;;;;;4969504;28;20385;-42
2023/05/01 19:12:50;;;;;;;;;;;;;;;;;;4969255;28;19957;-42
2023/05/01 19:15:16;;;;;;;;;;;;;;;;;;4952127;28;19996;-43
2023/05/01 19:17:42;;;;;;;;;;;;;;;;;;4967218;28;19985;-43
2023/05/01 19:20:08;;;;;;;;;;;;;;;;;;4965200;28;20309;-43
2023/05/01 19:22:35;;;;;;;;;;;;;;;;;;4974616;28;19914;-43
2023/05/01 19:25:02;;;;;;;;;;;;;;;;;;4962009;28;20333;-43
2023/05/01 19:27:28;;;;;;;;;;;;;;;;;;4967206;28;19914;-43
2023/05/01 19:29:57;;;;;;;;;;;;;;;;;;4967586;28;19914;-44
2023/05/01 19:32:23;;;;;;;;;;;;;;;;;;4968528;28;19910;-43
2023/05/01 19:34:49;;;;;;;;;;;;;;;;;;4967794;28;20004;-42
2023/05/01 19:37:16;;;;;;;;;;;;;;;;;;4968574;28;19968;-43
2023/05/01 19:39:42;;;;;;;;;;;;;;;;;;4971552;28;20178;-44
2023/05/01 19:42:08;;;;;;;;;;;;;;;;;;4968277;28;20452;-43
2023/05/01 19:44:34;;;;;;;;;;;;;;;;;;4967878;28;19910;-45
2023/05/01 19:47:01;;;;;;;;;;;;;;;;;;4968303;28;19918;-43
2023/05/01 19:49:27;;;;;;;;;;;;;;;;;;4968420;28;19910;-43
2023/05/01 19:51:53;;;;;;;;;;;;;;;;;;4963551;28;19921;-44
2023/05/01 19:54:21;;;;;;;;;;;;;;;;;;4986092;28;19917;-43
2023/05/01 19:56:50;;;;;;;;;;;;;;;;;;4975209;28;19910;-42
2023/05/01 19:59:17;;;;;;;;;;;;;;;;;;4968913;28;19921;-42
2023/05/01 20:01:43;;;;;;;;;;;;;;;;;;4967290;28;20337;-42
2023/05/01 20:04:09;;;;;;;;;;;;;;;;;;4967634;28;20385;-44
2023/05/01 20:06:35;;;;;;;;;;;;;;;;;;4968215;28;19983;-43
2023/05/01 20:09:01;;;;;;;;;;;;;;;;;;4967599;28;20416;-43
2023/05/01 20:11:27;;;;;;;;;;;;;;;;;;4950300;28;19918;-43
2023/05/01 20:13:53;;;;;;;;;;;;;;;;;;4965914;28;20344;-43
2023/05/01 20:16:20;;;;;;;;;;;;;;;;;;4963990;28;19910;-42
2023/05/01 20:18:47;;;;;;;;;;;;;;;;;;4967844;28;19925;-44
2023/05/01 20:21:12;;;;;;;;;;;;;;;;;;4967792;28;19937;-43
2023/05/01 20:23:39;;;;;;;;;;;;;;;;;;4968185;28;20372;-43
2023/05/01 20:26:04;;;;;;;;;;;;;;;;;;4950241;28;19913;-43
2023/05/01 20:28:31;;;;;;;;;;;;;;;;;;4950808;28;20232;-44
2023/05/01 20:30:58;;;;;;;;;;;;;;;;;;4967967;28;20022;-43
2023/05/01 20:33:24;;;;;;;;;;;;;;;;;;4968041;28;19933;-43
2023/05/01 20:35:51;;;;;;;;;;;;;;;;;;4967663;28;19941;-43
2023/05/01 20:38:18;;;;;;;;;;;;;;;;;;4968731;28;19918;-43
2023/05/01 20:40:44;;;;;;;;;;;;;;;;;;4968148;28;19921;-43
2023/05/01 20:43:10;;;;;;;;;;;;;;;;;;4968225;28;19973;-43
2023/05/01 20:45:36;;;;;;;;;;;;;;;;;;4967924;28;19908;-44
2023/05/01 20:48:02;;;;;;;;;;;;;;;;;;4963960;28;20000;-43
2023/05/01 20:50:29;;;;;;;;;;;;;;;;;;4967407;28;19914;-42
2023/05/01 20:52:55;;;;;;;;;;;;;;;;;;4967780;28;20301;-42
2023/05/01 20:55:21;;;;;;;;;;;;;;;;;;4967771;28;19921;-47
2023/05/01 20:57:47;;;;;;;;;;;;;;;;;;4968332;28;19906;-44
2023/05/01 21:00:13;;;;;;;;;;;;;;;;;;4967777;28;19914;-43
2023/05/01 21:02:39;;;;;;;;;;;;;;;;;;4967736;28;20022;-43
2023/05/01 21:05:05;;;;;;;;;;;;;;;;;;4949720;28;19906;-43
2023/05/01 21:07:31;;;;;;;;;;;;;;;;;;4949851;28;19913;-44
2023/05/01 21:09:57;;;;;;;;;;;;;;;;;;4966810;28;19918;-44
2023/05/01 21:12:23;;;;;;;;;;;;;;;;;;4950223;28;19906;-44
2023/05/01 21:14:50;;;;;;;;;;;;;;;;;;4949495;28;19961;-42
2023/05/01 21:17:17;;;;;;;;;;;;;;;;;;4968147;28;19964;-44
2023/05/01 21:19:44;;;;;;;;;;;;;;;;;;4966854;28;20436;-44
2023/05/01 21:22:11;;;;;;;;;;;;;;;;;;4967149;28;20428;-43
2023/05/01 21:24:37;;;;;;;;;;;;;;;;;;4966575;28;19945;-43
2023/05/01 21:27:03;;;;;;;;;;;;;;;;;;4967253;28;20396;-44
2023/05/01 21:29:30;;;;;;;;;;;;;;;;;;4967117;28;19906;-43
2023/05/01 21:31:56;;;;;;;;;;;;;;;;;;4967207;28;19909;-43
2023/05/01 21:34:22;;;;;;;;;;;;;;;;;;4966678;28;19914;-44
2023/05/01 21:36:48;;;;;;;;;;;;;;;;;;4966841;28;19956;-44
2023/05/01 21:39:14;;;;;;;;;;;;;;;;;;4963029;28;19981;-43
2023/05/01 21:41:40;;;;;;;;;;;;;;;;;;4965573;28;19997;-43
2023/05/01 21:44:06;;;;;;;;;;;;;;;;;;4967246;28;19996;-44
2023/05/01 21:46:32;;;;;;;;;;;;;;;;;;4966986;28;19960;-43